sensor_id;sensor_type;location;lat;lon;timestamp;temperature;humidity
62555;DHT22;48610;52.144;8.624;2023-02-18T00:02:33;9.00;99.90
62555;DHT22;48610;52.144;8.624;2023-02-18T00:05:33;9.00;99.90
62555;DHT22;48610;52.144;8.624;2023-02-18T00:08:34;8.90;99.90
62555;DHT22;48610;52.144;8.624;2023-02-18T00:11:35;8.90;99.90
62555;DHT22;48610;52.144;8.624;2023-02-18T00:14:37;8.90;99.90
62555;DHT22;48610;52.144;8.624;2023-02-18T00:17:38;8.70;99.90
62555;DHT22;48610;52.144;8.624;2023-02-18T00:20:38;8.60;99.90
62555;DHT22;48610;52.144;8.624;2023-02-18T00:23:39;8.70;99.90
62555;DHT22;48610;52.144;8.624;2023-02-18T00:26:40;8.70;99.90
62555;DHT22;48610;52.144;8.624;2023-02-18T00:29:41;8.60;99.90
62555;DHT22;48610;52.144;8.624;2023-02-18T00:32:42;8.60;99.90
62555;DHT22;48610;52.144;8.624;2023-02-18T00:35:42;8.70;99.90
62555;DHT22;48610;52.144;8.624;2023-02-18T00:38:49;8.70;99.90
62555;DHT22;48610;52.144;8.624;2023-02-18T00:41:50;8.70;99.90
62555;DHT22;48610;52.144;8.624;2023-02-18T00:44:50;8.80;99.90
62555;DHT22;48610;52.144;8.624;2023-02-18T00:47:51;8.80;99.90
62555;DHT22;48610;52.144;8.624;2023-02-18T00:50:51;8.70;99.90
62555;DHT22;48610;52.144;8.624;2023-02-18T00:53:52;8.70;99.90
62555;DHT22;48610;52.144;8.624;2023-02-18T00:56:53;8.80;99.90
62555;DHT22;48610;52.144;8.624;2023-02-18T00:59:53;8.80;99.90
62555;DHT22;48610;52.144;8.624;2023-02-18T01:02:54;8.80;99.90
62555;DHT22;48610;52.144;8.624;2023-02-18T01:05:54;8.80;99.90
62555;DHT22;48610;52.144;8.624;2023-02-18T01:08:55;8.90;99.90
62555;DHT22;48610;52.144;8.624;2023-02-18T01:11:56;9.00;99.90
62555;DHT22;48610;52.144;8.624;2023-02-18T01:14:56;9.00;99.90
62555;DHT22;48610;52.144;8.624;2023-02-18T01:17:58;9.00;99.90
62555;DHT22;48610;52.144;8.624;2023-02-18T01:20:58;9.10;99.90
62555;DHT22;48610;52.144;8.624;2023-02-18T01:23:59;9.20;99.90
62555;DHT22;48610;52.144;8.624;2023-02-18T01:26:59;9.10;99.90
62555;DHT22;48610;52.144;8.624;2023-02-18T01:30:01;9.20;99.90
62555;DHT22;48610;52.144;8.624;2023-02-18T01:33:02;9.20;99.90
62555;DHT22;48610;52.144;8.624;2023-02-18T01:36:03;9.20;99.90
62555;DHT22;48610;52.144;8.624;2023-02-18T01:39:05;9.20;99.90
62555;DHT22;48610;52.144;8.624;2023-02-18T01:42:06;9.20;99.90
62555;DHT22;48610;52.144;8.624;2023-02-18T01:48:45;9.30;99.90
62555;DHT22;48610;52.144;8.624;2023-02-18T01:51:50;9.30;99.90
62555;DHT22;48610;52.144;8.624;2023-02-18T01:54:55;9.20;99.90
62555;DHT22;48610;52.144;8.624;2023-02-18T01:57:56;9.20;99.90
62555;DHT22;48610;52.144;8.624;2023-02-18T02:00:57;9.20;99.90
62555;DHT22;48610;52.144;8.624;2023-02-18T02:03:59;9.20;99.90
62555;DHT22;48610;52.144;8.624;2023-02-18T02:06:59;9.20;99.90
62555;DHT22;48610;52.144;8.624;2023-02-18T02:10:00;9.40;99.90
62555;DHT22;48610;52.144;8.624;2023-02-18T02:13:12;9.30;99.90
62555;DHT22;48610;52.144;8.624;2023-02-18T02:22:39;9.60;99.90
62555;DHT22;48610;52.144;8.624;2023-02-18T02:36:06;9.50;99.90
62555;DHT22;48610;52.144;8.624;2023-02-18T02:39:15;9.50;99.90
62555;DHT22;48610;52.144;8.624;2023-02-18T02:42:34;9.50;99.90
62555;DHT22;48610;52.144;8.624;2023-02-18T02:52:30;9.60;99.90
62555;DHT22;48610;52.144;8.624;2023-02-18T02:55:31;9.60;99.90
62555;DHT22;48610;52.144;8.624;2023-02-18T02:58:32;9.70;99.90
62555;DHT22;48610;52.144;8.624;2023-02-18T03:01:58;9.80;99.90
62555;DHT22;48610;52.144;8.624;2023-02-18T03:05:47;9.80;99.90
62555;DHT22;48610;52.144;8.624;2023-02-18T03:12:37;9.90;99.90
62555;DHT22;48610;52.144;8.624;2023-02-18T03:18:47;9.80;99.90
62555;DHT22;48610;52.144;8.624;2023-02-18T03:22:38;9.90;99.90
62555;DHT22;48610;52.144;8.624;2023-02-18T03:25:15;9.80;99.90
62555;DHT22;48610;52.144;8.624;2023-02-18T03:28:20;9.90;99.90
62555;DHT22;48610;52.144;8.624;2023-02-18T03:31:22;9.90;99.90
62555;DHT22;48610;52.144;8.624;2023-02-18T03:34:29;10.00;99.90
62555;DHT22;48610;52.144;8.624;2023-02-18T03:37:31;10.10;99.90
62555;DHT22;48610;52.144;8.624;2023-02-18T03:40:35;10.00;99.90
62555;DHT22;48610;52.144;8.624;2023-02-18T03:43:36;10.10;99.90
62555;DHT22;48610;52.144;8.624;2023-02-18T03:46:39;10.10;99.90
62555;DHT22;48610;52.144;8.624;2023-02-18T03:49:42;10.10;99.90
62555;DHT22;48610;52.144;8.624;2023-02-18T03:52:43;10.10;99.90
62555;DHT22;48610;52.144;8.624;2023-02-18T03:55:43;10.00;99.90
62555;DHT22;48610;52.144;8.624;2023-02-18T03:58:44;10.00;99.90
62555;DHT22;48610;52.144;8.624;2023-02-18T04:01:44;10.00;99.90
62555;DHT22;48610;52.144;8.624;2023-02-18T04:04:45;9.90;99.90
62555;DHT22;48610;52.144;8.624;2023-02-18T04:07:45;9.80;99.90
62555;DHT22;48610;52.144;8.624;2023-02-18T04:10:46;9.80;99.90
62555;DHT22;48610;52.144;8.624;2023-02-18T04:13:46;9.90;99.90
62555;DHT22;48610;52.144;8.624;2023-02-18T04:16:48;9.90;99.90
62555;DHT22;48610;52.144;8.624;2023-02-18T04:19:49;10.00;99.90
62555;DHT22;48610;52.144;8.624;2023-02-18T04:22:49;9.90;99.90
62555;DHT22;48610;52.144;8.624;2023-02-18T04:25:51;9.90;99.90
62555;DHT22;48610;52.144;8.624;2023-02-18T04:28:51;9.90;99.90
62555;DHT22;48610;52.144;8.624;2023-02-18T04:31:52;10.00;99.90
62555;DHT22;48610;52.144;8.624;2023-02-18T04:34:53;10.10;99.90
62555;DHT22;48610;52.144;8.624;2023-02-18T04:37:53;10.10;99.90
62555;DHT22;48610;52.144;8.624;2023-02-18T04:40:54;10.20;99.90
62555;DHT22;48610;52.144;8.624;2023-02-18T04:43:54;10.20;99.90
62555;DHT22;48610;52.144;8.624;2023-02-18T04:46:55;10.20;99.90
62555;DHT22;48610;52.144;8.624;2023-02-18T04:49:56;10.10;99.90
62555;DHT22;48610;52.144;8.624;2023-02-18T04:52:56;10.10;99.90
62555;DHT22;48610;52.144;8.624;2023-02-18T04:55:58;10.10;99.90
62555;DHT22;48610;52.144;8.624;2023-02-18T04:58:59;10.20;99.90
62555;DHT22;48610;52.144;8.624;2023-02-18T05:01:59;10.20;99.90
62555;DHT22;48610;52.144;8.624;2023-02-18T05:05:00;10.30;99.90
62555;DHT22;48610;52.144;8.624;2023-02-18T05:08:01;10.30;99.90
62555;DHT22;48610;52.144;8.624;2023-02-18T05:11:05;10.20;99.90
62555;DHT22;48610;52.144;8.624;2023-02-18T05:14:06;10.30;99.90
62555;DHT22;48610;52.144;8.624;2023-02-18T05:17:07;10.30;99.90
62555;DHT22;48610;52.144;8.624;2023-02-18T05:20:08;10.30;99.90
62555;DHT22;48610;52.144;8.624;2023-02-18T05:23:08;10.30;99.90
62555;DHT22;48610;52.144;8.624;2023-02-18T05:26:09;10.30;99.90
62555;DHT22;48610;52.144;8.624;2023-02-18T05:29:10;10.30;99.90
62555;DHT22;48610;52.144;8.624;2023-02-18T05:32:10;10.40;99.90
62555;DHT22;48610;52.144;8.624;2023-02-18T05:35:11;10.50;99.90
62555;DHT22;48610;52.144;8.624;2023-02-18T05:38:12;10.50;99.90
62555;DHT22;48610;52.144;8.624;2023-02-18T05:41:13;10.50;99.90
62555;DHT22;48610;52.144;8.624;2023-02-18T05:44:14;10.50;99.90
62555;DHT22;48610;52.144;8.624;2023-02-18T05:47:29;10.50;99.90
62555;DHT22;48610;52.144;8.624;2023-02-18T05:50:31;10.60;99.90
62555;DHT22;48610;52.144;8.624;2023-02-18T05:53:31;10.60;99.90
62555;DHT22;48610;52.144;8.624;2023-02-18T05:56:32;10.50;99.90
62555;DHT22;48610;52.144;8.624;2023-02-18T05:59:33;10.50;99.90
62555;DHT22;48610;52.144;8.624;2023-02-18T06:02:33;10.50;99.90
62555;DHT22;48610;52.144;8.624;2023-02-18T06:05:34;10.50;99.90
62555;DHT22;48610;52.144;8.624;2023-02-18T06:08:34;10.60;99.90
62555;DHT22;48610;52.144;8.624;2023-02-18T06:11:36;10.60;99.90
62555;DHT22;48610;52.144;8.624;2023-02-18T06:14:37;10.70;99.90
62555;DHT22;48610;52.144;8.624;2023-02-18T06:17:41;10.60;99.90
62555;DHT22;48610;52.144;8.624;2023-02-18T06:20:42;10.60;99.90
62555;DHT22;48610;52.144;8.624;2023-02-18T06:23:42;10.70;99.90
62555;DHT22;48610;52.144;8.624;2023-02-18T06:26:43;10.70;99.90
62555;DHT22;48610;52.144;8.624;2023-02-18T06:29:43;10.80;99.90
62555;DHT22;48610;52.144;8.624;2023-02-18T06:32:44;10.80;99.90
62555;DHT22;48610;52.144;8.624;2023-02-18T06:35:59;10.80;99.90
62555;DHT22;48610;52.144;8.624;2023-02-18T06:39:02;10.80;99.90
62555;DHT22;48610;52.144;8.624;2023-02-18T06:42:03;10.80;99.90
62555;DHT22;48610;52.144;8.624;2023-02-18T06:45:03;10.70;99.90
62555;DHT22;48610;52.144;8.624;2023-02-18T06:48:06;10.70;99.90
62555;DHT22;48610;52.144;8.624;2023-02-18T06:51:06;10.70;99.90
62555;DHT22;48610;52.144;8.624;2023-02-18T06:54:07;10.80;99.90
62555;DHT22;48610;52.144;8.624;2023-02-18T06:57:08;10.80;99.90
62555;DHT22;48610;52.144;8.624;2023-02-18T07:00:08;10.80;99.90
62555;DHT22;48610;52.144;8.624;2023-02-18T07:03:11;10.80;99.90
62555;DHT22;48610;52.144;8.624;2023-02-18T07:06:12;10.80;99.90
62555;DHT22;48610;52.144;8.624;2023-02-18T07:09:13;10.70;99.90
62555;DHT22;48610;52.144;8.624;2023-02-18T07:12:13;10.80;99.90
62555;DHT22;48610;52.144;8.624;2023-02-18T07:15:14;10.90;99.90
62555;DHT22;48610;52.144;8.624;2023-02-18T07:18:15;10.70;99.90
62555;DHT22;48610;52.144;8.624;2023-02-18T07:21:16;10.70;99.90
62555;DHT22;48610;52.144;8.624;2023-02-18T07:24:16;10.90;99.90
62555;DHT22;48610;52.144;8.624;2023-02-18T07:27:17;10.90;99.90
62555;DHT22;48610;52.144;8.624;2023-02-18T07:30:19;10.90;99.90
62555;DHT22;48610;52.144;8.624;2023-02-18T07:33:19;10.90;99.90
62555;DHT22;48610;52.144;8.624;2023-02-18T07:36:20;11.00;99.90
62555;DHT22;48610;52.144;8.624;2023-02-18T07:39:20;10.90;99.90
62555;DHT22;48610;52.144;8.624;2023-02-18T07:42:21;10.90;99.90
62555;DHT22;48610;52.144;8.624;2023-02-18T07:45:22;10.90;99.90
62555;DHT22;48610;52.144;8.624;2023-02-18T07:48:22;10.90;99.90
62555;DHT22;48610;52.144;8.624;2023-02-18T07:51:23;10.90;99.90
62555;DHT22;48610;52.144;8.624;2023-02-18T07:54:24;11.00;99.90
62555;DHT22;48610;52.144;8.624;2023-02-18T07:57:25;10.90;99.90
62555;DHT22;48610;52.144;8.624;2023-02-18T08:00:25;10.90;99.90
62555;DHT22;48610;52.144;8.624;2023-02-18T08:03:28;10.90;99.90
62555;DHT22;48610;52.144;8.624;2023-02-18T08:06:35;10.90;99.90
62555;DHT22;48610;52.144;8.624;2023-02-18T08:09:36;10.90;99.90
62555;DHT22;48610;52.144;8.624;2023-02-18T08:12:36;10.90;99.90
62555;DHT22;48610;52.144;8.624;2023-02-18T08:15:37;10.90;99.90
62555;DHT22;48610;52.144;8.624;2023-02-18T08:18:38;10.90;99.90
62555;DHT22;48610;52.144;8.624;2023-02-18T08:21:39;10.90;99.90
62555;DHT22;48610;52.144;8.624;2023-02-18T08:24:40;10.90;99.90
62555;DHT22;48610;52.144;8.624;2023-02-18T08:27:41;10.90;99.90
62555;DHT22;48610;52.144;8.624;2023-02-18T08:30:46;10.80;99.90
62555;DHT22;48610;52.144;8.624;2023-02-18T08:33:47;10.80;99.90
62555;DHT22;48610;52.144;8.624;2023-02-18T08:36:48;10.80;99.90
62555;DHT22;48610;52.144;8.624;2023-02-18T08:39:49;10.80;99.90
62555;DHT22;48610;52.144;8.624;2023-02-18T08:42:49;10.90;99.90
62555;DHT22;48610;52.144;8.624;2023-02-18T08:45:50;10.80;99.90
62555;DHT22;48610;52.144;8.624;2023-02-18T08:48:51;10.80;99.90
62555;DHT22;48610;52.144;8.624;2023-02-18T08:51:51;10.80;99.90
62555;DHT22;48610;52.144;8.624;2023-02-18T08:54:52;10.90;99.90
62555;DHT22;48610;52.144;8.624;2023-02-18T08:57:53;10.90;99.90
62555;DHT22;48610;52.144;8.624;2023-02-18T09:00:53;10.90;99.90
62555;DHT22;48610;52.144;8.624;2023-02-18T09:03:54;10.90;99.90
62555;DHT22;48610;52.144;8.624;2023-02-18T09:06:55;10.90;99.90
62555;DHT22;48610;52.144;8.624;2023-02-18T09:09:55;10.90;99.90
62555;DHT22;48610;52.144;8.624;2023-02-18T09:12:56;10.90;99.90
62555;DHT22;48610;52.144;8.624;2023-02-18T09:16:05;10.90;99.90
62555;DHT22;48610;52.144;8.624;2023-02-18T09:19:07;11.00;99.90
62555;DHT22;48610;52.144;8.624;2023-02-18T09:22:08;11.00;99.90
62555;DHT22;48610;52.144;8.624;2023-02-18T09:25:08;10.90;99.90
62555;DHT22;48610;52.144;8.624;2023-02-18T09:28:09;10.90;99.90
62555;DHT22;48610;52.144;8.624;2023-02-18T09:31:15;10.90;99.90
62555;DHT22;48610;52.144;8.624;2023-02-18T09:34:16;10.90;99.90
62555;DHT22;48610;52.144;8.624;2023-02-18T09:37:16;10.90;99.90
62555;DHT22;48610;52.144;8.624;2023-02-18T09:40:28;11.00;99.90
62555;DHT22;48610;52.144;8.624;2023-02-18T09:43:40;11.00;99.90
62555;DHT22;48610;52.144;8.624;2023-02-18T09:46:53;11.00;99.90
62555;DHT22;48610;52.144;8.624;2023-02-18T09:49:58;11.00;99.90
62555;DHT22;48610;52.144;8.624;2023-02-18T09:53:01;11.00;99.90
62555;DHT22;48610;52.144;8.624;2023-02-18T09:56:02;10.90;99.90
62555;DHT22;48610;52.144;8.624;2023-02-18T09:59:04;11.00;99.90
62555;DHT22;48610;52.144;8.624;2023-02-18T10:02:12;10.90;99.90
62555;DHT22;48610;52.144;8.624;2023-02-18T10:05:16;10.80;99.90
62555;DHT22;48610;52.144;8.624;2023-02-18T10:08:39;10.80;99.90
62555;DHT22;48610;52.144;8.624;2023-02-18T10:11:42;10.90;99.90
62555;DHT22;48610;52.144;8.624;2023-02-18T10:14:53;10.80;99.90
62555;DHT22;48610;52.144;8.624;2023-02-18T10:17:56;10.70;99.90
62555;DHT22;48610;52.144;8.624;2023-02-18T10:21:05;10.70;99.90
62555;DHT22;48610;52.144;8.624;2023-02-18T10:24:26;10.70;99.90
62555;DHT22;48610;52.144;8.624;2023-02-18T10:27:33;10.70;99.90
62555;DHT22;48610;52.144;8.624;2023-02-18T10:30:42;10.70;99.90
62555;DHT22;48610;52.144;8.624;2023-02-18T10:33:55;10.60;99.90
62555;DHT22;48610;52.144;8.624;2023-02-18T10:46:48;10.50;99.90
62555;DHT22;48610;52.144;8.624;2023-02-18T10:50:00;10.50;99.90
62555;DHT22;48610;52.144;8.624;2023-02-18T10:56:48;10.60;99.90
62555;DHT22;48610;52.144;8.624;2023-02-18T10:59:59;10.50;99.90
62555;DHT22;48610;52.144;8.624;2023-02-18T11:06:03;10.40;99.90
62555;DHT22;48610;52.144;8.624;2023-02-18T11:09:05;10.30;99.90
62555;DHT22;48610;52.144;8.624;2023-02-18T11:12:19;10.30;99.90
62555;DHT22;48610;52.144;8.624;2023-02-18T11:15:25;10.20;99.90
62555;DHT22;48610;52.144;8.624;2023-02-18T11:18:36;10.30;99.90
62555;DHT22;48610;52.144;8.624;2023-02-18T11:21:38;10.30;99.90
62555;DHT22;48610;52.144;8.624;2023-02-18T11:24:38;10.40;99.90
62555;DHT22;48610;52.144;8.624;2023-02-18T11:27:55;10.30;99.90
62555;DHT22;48610;52.144;8.624;2023-02-18T11:30:58;10.20;99.90
62555;DHT22;48610;52.144;8.624;2023-02-18T11:34:02;10.20;99.90
62555;DHT22;48610;52.144;8.624;2023-02-18T11:37:09;10.20;99.90
62555;DHT22;48610;52.144;8.624;2023-02-18T11:40:30;10.30;99.90
62555;DHT22;48610;52.144;8.624;2023-02-18T11:43:33;10.30;99.90
62555;DHT22;48610;52.144;8.624;2023-02-18T11:46:34;10.30;99.90
62555;DHT22;48610;52.144;8.624;2023-02-18T11:49:35;10.30;99.90
62555;DHT22;48610;52.144;8.624;2023-02-18T11:52:38;10.30;99.90
62555;DHT22;48610;52.144;8.624;2023-02-18T11:55:54;10.40;99.90
62555;DHT22;48610;52.144;8.624;2023-02-18T11:58:56;10.30;99.90
62555;DHT22;48610;52.144;8.624;2023-02-18T12:02:29;10.20;99.90
62555;DHT22;48610;52.144;8.624;2023-02-18T12:05:31;10.30;99.90
62555;DHT22;48610;52.144;8.624;2023-02-18T12:08:43;10.30;99.90
62555;DHT22;48610;52.144;8.624;2023-02-18T12:12:02;10.30;99.90
62555;DHT22;48610;52.144;8.624;2023-02-18T12:15:07;10.20;99.90
62555;DHT22;48610;52.144;8.624;2023-02-18T12:18:16;10.20;99.90
62555;DHT22;48610;52.144;8.624;2023-02-18T12:21:35;10.20;99.90
62555;DHT22;48610;52.144;8.624;2023-02-18T12:29:04;10.20;99.90
62555;DHT22;48610;52.144;8.624;2023-02-18T12:31:54;10.10;99.90
62555;DHT22;48610;52.144;8.624;2023-02-18T12:49:06;10.10;99.90
62555;DHT22;48610;52.144;8.624;2023-02-18T13:02:29;10.10;99.90
62555;DHT22;48610;52.144;8.624;2023-02-18T13:15:49;10.30;99.90
62555;DHT22;48610;52.144;8.624;2023-02-18T13:19:15;10.40;99.90
62555;DHT22;48610;52.144;8.624;2023-02-18T13:22:20;10.40;99.90
62555;DHT22;48610;52.144;8.624;2023-02-18T13:25:22;10.30;99.90
62555;DHT22;48610;52.144;8.624;2023-02-18T13:29:04;10.30;99.90
62555;DHT22;48610;52.144;8.624;2023-02-18T13:32:28;10.20;99.90
62555;DHT22;48610;52.144;8.624;2023-02-18T13:35:41;10.10;99.90
62555;DHT22;48610;52.144;8.624;2023-02-18T13:39:02;10.20;99.90
62555;DHT22;48610;52.144;8.624;2023-02-18T13:45:24;10.20;99.90
62555;DHT22;48610;52.144;8.624;2023-02-18T13:48:26;10.30;99.90
62555;DHT22;48610;52.144;8.624;2023-02-18T13:51:39;10.30;99.90
62555;DHT22;48610;52.144;8.624;2023-02-18T13:54:43;10.40;99.90
62555;DHT22;48610;52.144;8.624;2023-02-18T13:57:49;10.40;99.90
62555;DHT22;48610;52.144;8.624;2023-02-18T14:01:41;10.40;99.90
62555;DHT22;48610;52.144;8.624;2023-02-18T14:17:34;10.50;99.90
62555;DHT22;48610;52.144;8.624;2023-02-18T14:26:51;10.60;99.90
62555;DHT22;48610;52.144;8.624;2023-02-18T14:29:52;10.60;99.90
62555;DHT22;48610;52.144;8.624;2023-02-18T14:32:58;10.70;99.90
62555;DHT22;48610;52.144;8.624;2023-02-18T14:36:18;10.70;99.90
62555;DHT22;48610;52.144;8.624;2023-02-18T14:43:01;10.70;99.90
62555;DHT22;48610;52.144;8.624;2023-02-18T14:49:19;10.80;99.90
62555;DHT22;48610;52.144;8.624;2023-02-18T14:52:33;10.70;99.90
62555;DHT22;48610;52.144;8.624;2023-02-18T14:55:39;10.70;99.90
62555;DHT22;48610;52.144;8.624;2023-02-18T14:58:46;10.80;99.90
62555;DHT22;48610;52.144;8.624;2023-02-18T15:01:47;10.80;99.90
62555;DHT22;48610;52.144;8.624;2023-02-18T15:04:49;10.80;99.90
62555;DHT22;48610;52.144;8.624;2023-02-18T15:07:57;10.90;99.90
62555;DHT22;48610;52.144;8.624;2023-02-18T15:11:01;10.80;99.90
62555;DHT22;48610;52.144;8.624;2023-02-18T15:14:09;10.90;99.90
62555;DHT22;48610;52.144;8.624;2023-02-18T15:17:29;10.90;99.90
62555;DHT22;48610;52.144;8.624;2023-02-18T15:20:33;10.90;99.90
62555;DHT22;48610;52.144;8.624;2023-02-18T15:23:36;10.90;99.90
62555;DHT22;48610;52.144;8.624;2023-02-18T15:26:42;11.00;99.90
62555;DHT22;48610;52.144;8.624;2023-02-18T15:29:55;10.90;99.90
62555;DHT22;48610;52.144;8.624;2023-02-18T15:32:57;10.90;99.90
62555;DHT22;48610;52.144;8.624;2023-02-18T15:36:04;10.90;99.90
62555;DHT22;48610;52.144;8.624;2023-02-18T15:39:05;10.90;99.90
62555;DHT22;48610;52.144;8.624;2023-02-18T15:45:38;10.90;99.90
62555;DHT22;48610;52.144;8.624;2023-02-18T15:48:46;10.90;99.90
62555;DHT22;48610;52.144;8.624;2023-02-18T15:51:48;10.90;99.90
62555;DHT22;48610;52.144;8.624;2023-02-18T15:54:50;10.90;99.90
62555;DHT22;48610;52.144;8.624;2023-02-18T15:57:52;10.80;99.90
62555;DHT22;48610;52.144;8.624;2023-02-18T16:03:56;10.80;99.90
62555;DHT22;48610;52.144;8.624;2023-02-18T16:06:56;10.80;99.90
62555;DHT22;48610;52.144;8.624;2023-02-18T16:10:22;10.80;99.90
62555;DHT22;48610;52.144;8.624;2023-02-18T16:13:23;10.80;99.90
62555;DHT22;48610;52.144;8.624;2023-02-18T16:16:30;10.80;99.90
62555;DHT22;48610;52.144;8.624;2023-02-18T16:19:33;10.70;99.90
62555;DHT22;48610;52.144;8.624;2023-02-18T16:22:36;10.80;99.90
62555;DHT22;48610;52.144;8.624;2023-02-18T16:25:44;10.90;99.90
62555;DHT22;48610;52.144;8.624;2023-02-18T16:28:46;11.00;99.90
62555;DHT22;48610;52.144;8.624;2023-02-18T16:31:49;10.90;99.90
62555;DHT22;48610;52.144;8.624;2023-02-18T16:34:50;10.90;99.90
62555;DHT22;48610;52.144;8.624;2023-02-18T16:37:52;11.00;99.90
62555;DHT22;48610;52.144;8.624;2023-02-18T16:40:53;11.00;99.90
62555;DHT22;48610;52.144;8.624;2023-02-18T16:43:54;11.00;99.90
62555;DHT22;48610;52.144;8.624;2023-02-18T16:46:55;11.00;99.90
62555;DHT22;48610;52.144;8.624;2023-02-18T16:49:56;11.00;99.90
62555;DHT22;48610;52.144;8.624;2023-02-18T16:52:58;10.90;99.90
62555;DHT22;48610;52.144;8.624;2023-02-18T16:55:59;11.00;99.90
62555;DHT22;48610;52.144;8.624;2023-02-18T16:59:01;11.00;99.90
62555;DHT22;48610;52.144;8.624;2023-02-18T17:02:02;11.00;99.90
62555;DHT22;48610;52.144;8.624;2023-02-18T17:05:02;11.00;99.90
62555;DHT22;48610;52.144;8.624;2023-02-18T17:08:14;11.00;99.90
62555;DHT22;48610;52.144;8.624;2023-02-18T17:11:21;10.90;99.90
62555;DHT22;48610;52.144;8.624;2023-02-18T17:14:23;10.90;99.90
62555;DHT22;48610;52.144;8.624;2023-02-18T17:17:23;10.90;99.90
62555;DHT22;48610;52.144;8.624;2023-02-18T17:20:26;10.90;99.90
62555;DHT22;48610;52.144;8.624;2023-02-18T17:23:26;10.80;99.90
62555;DHT22;48610;52.144;8.624;2023-02-18T17:26:28;10.80;99.90
62555;DHT22;48610;52.144;8.624;2023-02-18T17:29:29;10.90;99.90
62555;DHT22;48610;52.144;8.624;2023-02-18T17:32:30;10.70;99.90
62555;DHT22;48610;52.144;8.624;2023-02-18T17:35:30;10.70;99.90
62555;DHT22;48610;52.144;8.624;2023-02-18T17:38:32;10.60;99.90
62555;DHT22;48610;52.144;8.624;2023-02-18T17:41:33;10.70;99.90
62555;DHT22;48610;52.144;8.624;2023-02-18T17:44:34;10.60;99.90
62555;DHT22;48610;52.144;8.624;2023-02-18T17:47:35;10.60;99.90
62555;DHT22;48610;52.144;8.624;2023-02-18T17:50:36;10.60;99.90
62555;DHT22;48610;52.144;8.624;2023-02-18T17:53:36;10.60;99.90
62555;DHT22;48610;52.144;8.624;2023-02-18T17:56:37;10.60;99.90
62555;DHT22;48610;52.144;8.624;2023-02-18T17:59:38;10.60;99.90
62555;DHT22;48610;52.144;8.624;2023-02-18T18:02:38;10.60;99.90
62555;DHT22;48610;52.144;8.624;2023-02-18T18:05:41;10.70;99.90
62555;DHT22;48610;52.144;8.624;2023-02-18T18:08:42;10.70;99.90
62555;DHT22;48610;52.144;8.624;2023-02-18T18:11:42;10.70;99.90
62555;DHT22;48610;52.144;8.624;2023-02-18T18:14:43;10.70;99.90
62555;DHT22;48610;52.144;8.624;2023-02-18T18:17:44;10.70;99.90
62555;DHT22;48610;52.144;8.624;2023-02-18T18:20:47;10.70;99.90
62555;DHT22;48610;52.144;8.624;2023-02-18T18:23:49;10.60;99.90
62555;DHT22;48610;52.144;8.624;2023-02-18T18:26:50;10.60;99.90
62555;DHT22;48610;52.144;8.624;2023-02-18T18:29:51;10.70;99.90
62555;DHT22;48610;52.144;8.624;2023-02-18T18:32:51;10.70;99.90
62555;DHT22;48610;52.144;8.624;2023-02-18T18:35:54;10.80;99.90
62555;DHT22;48610;52.144;8.624;2023-02-18T18:38:55;10.80;99.90
62555;DHT22;48610;52.144;8.624;2023-02-18T18:41:55;10.70;99.90
62555;DHT22;48610;52.144;8.624;2023-02-18T18:44:56;10.70;99.90
62555;DHT22;48610;52.144;8.624;2023-02-18T18:47:57;10.70;99.90
62555;DHT22;48610;52.144;8.624;2023-02-18T18:50:58;10.70;99.90
62555;DHT22;48610;52.144;8.624;2023-02-18T18:54:00;10.70;99.90
62555;DHT22;48610;52.144;8.624;2023-02-18T18:57:01;10.60;99.90
62555;DHT22;48610;52.144;8.624;2023-02-18T19:00:02;10.60;99.90
62555;DHT22;48610;52.144;8.624;2023-02-18T19:03:04;10.60;99.90
62555;DHT22;48610;52.144;8.624;2023-02-18T19:06:05;10.50;99.90
62555;DHT22;48610;52.144;8.624;2023-02-18T19:09:05;10.60;99.90
62555;DHT22;48610;52.144;8.624;2023-02-18T19:12:07;10.60;99.90
62555;DHT22;48610;52.144;8.624;2023-02-18T19:15:14;10.50;99.90
62555;DHT22;48610;52.144;8.624;2023-02-18T19:18:17;10.50;99.90
62555;DHT22;48610;52.144;8.624;2023-02-18T19:21:19;10.50;99.90
62555;DHT22;48610;52.144;8.624;2023-02-18T19:24:19;10.50;99.90
62555;DHT22;48610;52.144;8.624;2023-02-18T19:27:20;10.60;99.90
62555;DHT22;48610;52.144;8.624;2023-02-18T19:30:27;10.60;99.90
62555;DHT22;48610;52.144;8.624;2023-02-18T19:33:28;10.60;99.90
62555;DHT22;48610;52.144;8.624;2023-02-18T19:36:29;10.60;99.90
62555;DHT22;48610;52.144;8.624;2023-02-18T19:39:29;10.50;99.90
62555;DHT22;48610;52.144;8.624;2023-02-18T19:42:30;10.50;99.90
62555;DHT22;48610;52.144;8.624;2023-02-18T19:45:32;10.60;99.90
62555;DHT22;48610;52.144;8.624;2023-02-18T19:48:33;10.50;99.90
62555;DHT22;48610;52.144;8.624;2023-02-18T19:51:34;10.40;99.90
62555;DHT22;48610;52.144;8.624;2023-02-18T19:54:34;10.50;99.90
62555;DHT22;48610;52.144;8.624;2023-02-18T19:57:35;10.50;99.90
62555;DHT22;48610;52.144;8.624;2023-02-18T20:00:36;10.60;99.90
62555;DHT22;48610;52.144;8.624;2023-02-18T20:03:36;10.60;99.90
62555;DHT22;48610;52.144;8.624;2023-02-18T20:06:37;10.50;99.90
62555;DHT22;48610;52.144;8.624;2023-02-18T20:09:38;10.50;99.90
62555;DHT22;48610;52.144;8.624;2023-02-18T20:12:39;10.50;99.90
62555;DHT22;48610;52.144;8.624;2023-02-18T20:15:40;10.50;99.90
62555;DHT22;48610;52.144;8.624;2023-02-18T20:18:40;10.50;99.90
62555;DHT22;48610;52.144;8.624;2023-02-18T20:21:41;10.50;99.90
62555;DHT22;48610;52.144;8.624;2023-02-18T20:24:42;10.50;99.90
62555;DHT22;48610;52.144;8.624;2023-02-18T20:27:42;10.50;99.90
62555;DHT22;48610;52.144;8.624;2023-02-18T20:30:43;10.40;99.90
62555;DHT22;48610;52.144;8.624;2023-02-18T20:33:44;10.40;99.90
62555;DHT22;48610;52.144;8.624;2023-02-18T20:36:47;10.30;99.90
62555;DHT22;48610;52.144;8.624;2023-02-18T20:39:48;10.30;99.90
62555;DHT22;48610;52.144;8.624;2023-02-18T20:42:49;10.30;99.90
62555;DHT22;48610;52.144;8.624;2023-02-18T20:45:49;10.30;99.90
62555;DHT22;48610;52.144;8.624;2023-02-18T20:48:50;10.40;99.90
62555;DHT22;48610;52.144;8.624;2023-02-18T20:51:50;10.50;99.90
62555;DHT22;48610;52.144;8.624;2023-02-18T20:54:51;10.40;99.90
62555;DHT22;48610;52.144;8.624;2023-02-18T20:57:52;10.30;99.90
62555;DHT22;48610;52.144;8.624;2023-02-18T21:01:13;10.30;99.90
62555;DHT22;48610;52.144;8.624;2023-02-18T21:04:16;10.20;99.90
62555;DHT22;48610;52.144;8.624;2023-02-18T21:07:17;10.20;99.90
62555;DHT22;48610;52.144;8.624;2023-02-18T21:10:17;10.30;99.90
62555;DHT22;48610;52.144;8.624;2023-02-18T21:13:24;10.40;99.90
62555;DHT22;48610;52.144;8.624;2023-02-18T21:16:27;10.30;99.90
62555;DHT22;48610;52.144;8.624;2023-02-18T21:19:27;10.50;99.90
62555;DHT22;48610;52.144;8.624;2023-02-18T21:22:28;10.40;99.90
62555;DHT22;48610;52.144;8.624;2023-02-18T21:25:33;10.50;99.90
62555;DHT22;48610;52.144;8.624;2023-02-18T21:28:34;10.50;99.90